TimeCST,TemperatureF,Dew PointF,Humidity,Sea Level PressureIn,VisibilityMPH,Wind Direction,Wind SpeedMPH,Gust SpeedMPH,PrecipitationIn,Events,Conditions,WindDirDegrees,DateUTC
12:14 AM,32.4,26.4,79,30.32,10.0,SSE,8.1,-,N/A,,Scattered Clouds,150,2012-11-17 06:14:00
12:34 AM,32.2,26.6,80,30.31,10.0,SSE,8.1,-,N/A,,Scattered Clouds,150,2012-11-17 06:34:00
12:54 AM,32.4,26.6,79,30.31,10.0,SSE,8.1,-,N/A,,Clear,160,2012-11-17 06:54:00
1:15 AM,32.0,26.6,80,30.31,10.0,SSE,9.2,-,N/A,,Scattered Clouds,160,2012-11-17 07:15:00
1:34 AM,32.0,27.0,82,30.30,10.0,SSE,8.1,-,N/A,,Scattered Clouds,160,2012-11-17 07:34:00
1:54 AM,32.0,27.0,82,30.31,10.0,SSE,6.9,-,N/A,,Scattered Clouds,150,2012-11-17 07:54:00
2:15 AM,32.0,27.5,83,30.30,10.0,SSE,8.1,-,N/A,,Clear,160,2012-11-17 08:15:00
2:34 AM,33.1,28.4,83,30.29,10.0,SSE,11.5,-,N/A,,Scattered Clouds,160,2012-11-17 08:34:00
2:54 AM,34.3,28.9,81,30.29,10.0,SSE,11.5,-,N/A,,Clear,150,2012-11-17 08:54:00
3:15 AM,34.2,28.9,81,30.28,10.0,SSE,9.2,-,N/A,,Clear,160,2012-11-17 09:15:00
3:34 AM,34.7,29.7,82,30.28,10.0,SSE,9.2,-,N/A,,Scattered Clouds,150,2012-11-17 09:34:00
3:54 AM,34.9,29.7,81,30.27,10.0,SSE,9.2,-,N/A,,Scattered Clouds,160,2012-11-17 09:54:00
4:15 AM,34.7,29.7,82,30.27,10.0,SSE,9.2,-,N/A,,Scattered Clouds,150,2012-11-17 10:15:00
4:34 AM,34.3,29.7,83,30.27,10.0,SSE,9.2,-,N/A,,Scattered Clouds,150,2012-11-17 10:34:00
4:54 AM,34.2,29.7,84,30.27,10.0,SSE,9.2,-,N/A,,Scattered Clouds,150,2012-11-17 10:54:00
5:15 AM,34.2,29.8,84,30.27,10.0,SSE,6.9,-,N/A,,Scattered Clouds,160,2012-11-17 11:15:00
5:34 AM,34.3,30.0,84,30.26,10.0,SSE,9.2,-,N/A,,Scattered Clouds,150,2012-11-17 11:34:00
5:54 AM,34.7,30.2,84,30.26,10.0,SSE,9.2,-,N/A,,Scattered Clouds,160,2012-11-17 11:54:00
6:14 AM,34.7,30.2,84,30.26,10.0,SSE,10.4,-,N/A,,Scattered Clouds,150,2012-11-17 12:14:00
6:35 AM,34.9,30.2,83,30.26,10.0,SSE,9.2,-,N/A,,Scattered Clouds,150,2012-11-17 12:35:00
6:54 AM,34.7,30.2,84,30.26,10.0,SSE,8.1,-,N/A,,Scattered Clouds,160,2012-11-17 12:54:00
7:15 AM,34.7,30.4,84,30.26,10.0,SSE,9.2,-,N/A,,Scattered Clouds,160,2012-11-17 13:15:00
7:34 AM,35.1,30.7,84,30.26,10.0,SSE,8.1,-,N/A,,Clear,160,2012-11-17 13:34:00
7:54 AM,35.8,31.1,83,30.26,10.0,SSE,9.2,-,N/A,,Clear,150,2012-11-17 13:54:00
8:14 AM,36.7,31.6,82,30.26,10.0,SSE,10.4,-,N/A,,Clear,160,2012-11-17 14:14:00
8:35 AM,37.8,32.0,80,30.26,10.0,SSE,10.4,-,N/A,,Clear,150,2012-11-17 14:35:00
8:54 AM,39.0,32.4,77,30.26,10.0,South,10.4,-,N/A,,Clear,170,2012-11-17 14:54:00
9:14 AM,40.6,33.1,74,30.27,10.0,SSE,10.4,-,N/A,,Clear,160,2012-11-17 15:14:00
9:35 AM,42.8,33.8,70,30.27,10.0,SSE,10.4,-,N/A,,Clear,160,2012-11-17 15:35:00
9:54 AM,44.2,34.3,68,30.27,10.0,SSE,10.4,17.3,N/A,,Clear,160,2012-11-17 15:54:00
10:14 AM,45.5,34.5,65,30.26,10.0,SSE,11.5,18.4,N/A,,Clear,160,2012-11-17 16:14:00
10:35 AM,46.6,34.7,63,30.26,10.0,South,13.8,-,N/A,,Clear,170,2012-11-17 16:35:00
10:54 AM,48.0,34.9,60,30.26,10.0,SSE,13.8,17.3,N/A,,Clear,160,2012-11-17 16:54:00
11:14 AM,49.3,34.7,57,30.25,10.0,SSE,13.8,18.4,N/A,,Clear,160,2012-11-17 17:14:00
11:34 AM,50.4,34.7,55,30.24,10.0,SSE,10.4,-,N/A,,Clear,160,2012-11-17 17:34:00
11:54 AM,51.6,33.8,51,30.24,10.0,South,11.5,18.4,N/A,,Clear,170,2012-11-17 17:54:00
12:15 PM,52.7,33.8,49,30.23,10.0,South,10.4,18.4,N/A,,Clear,180,2012-11-17 18:15:00
12:34 PM,53.6,33.6,47,30.23,10.0,South,11.5,19.6,N/A,,Clear,170,2012-11-17 18:34:00
12:54 PM,54.1,33.8,46,30.23,10.0,South,11.5,16.1,N/A,,Clear,180,2012-11-17 18:54:00
1:15 PM,54.0,34.0,47,30.22,10.0,South,8.1,-,N/A,,Clear,180,2012-11-17 19:15:00
1:34 PM,55.8,33.8,44,30.22,10.0,South,12.7,20.7,N/A,,Clear,190,2012-11-17 19:34:00
1:54 PM,55.8,34.0,44,30.21,10.0,South,15.0,20.7,N/A,,Clear,170,2012-11-17 19:54:00
2:15 PM,56.1,34.3,44,30.21,10.0,South,15.0,20.7,N/A,,Clear,180,2012-11-17 20:15:00
2:35 PM,56.3,34.7,44,30.21,10.0,South,10.4,18.4,N/A,,Clear,170,2012-11-17 20:35:00
2:54 PM,54.9,34.7,47,30.21,10.0,SSE,13.8,18.4,N/A,,Clear,160,2012-11-17 20:54:00
3:15 PM,54.1,35.4,49,30.21,10.0,SSE,13.8,17.3,N/A,,Clear,160,2012-11-17 21:15:00
3:35 PM,52.9,35.6,52,30.21,10.0,SSE,10.4,-,N/A,,Clear,160,2012-11-17 21:35:00
3:54 PM,52.0,35.4,53,30.21,10.0,SSE,10.4,-,N/A,,Clear,160,2012-11-17 21:54:00
4:15 PM,51.3,35.4,55,30.20,10.0,SSE,12.7,16.1,N/A,,Scattered Clouds,160,2012-11-17 22:15:00
4:35 PM,50.4,35.2,56,30.21,10.0,SSE,10.4,-,N/A,,Scattered Clouds,160,2012-11-17 22:35:00
4:54 PM,50.9,35.6,56,30.21,10.0,SSE,9.2,-,N/A,,Overcast,160,2012-11-17 22:54:00
5:15 PM,50.0,35.2,57,30.21,10.0,SSE,9.2,-,N/A,,Mostly Cloudy,160,2012-11-17 23:15:00
5:35 PM,50.4,35.2,56,30.20,10.0,SSE,9.2,16.1,N/A,,Mostly Cloudy,160,2012-11-17 23:35:00
6:14 PM,50.2,34.9,56,30.20,10.0,SSE,10.4,17.3,N/A,,Scattered Clouds,150,2012-11-18 00:14:00
6:35 PM,50.0,35.1,57,30.20,10.0,SSE,11.5,17.3,N/A,,Mostly Cloudy,150,2012-11-18 00:35:00
6:54 PM,50.0,35.4,57,30.19,10.0,SSE,12.7,-,N/A,,Overcast,150,2012-11-18 00:54:00
7:14 PM,50.0,35.6,58,30.19,10.0,SSE,13.8,18.4,N/A,,Overcast,150,2012-11-18 01:14:00
7:35 PM,50.0,35.8,58,30.18,10.0,SSE,16.1,20.7,N/A,,Overcast,150,2012-11-18 01:35:00
7:54 PM,50.2,35.8,58,30.18,10.0,SSE,17.3,21.9,N/A,,Overcast,160,2012-11-18 01:54:00
8:14 PM,50.0,35.8,58,30.18,10.0,SSE,15.0,20.7,N/A,,Overcast,160,2012-11-18 02:14:00
8:35 PM,49.5,35.8,59,30.21,10.0,South,9.2,16.1,N/A,,Overcast,190,2012-11-18 02:35:00
8:54 PM,49.3,35.8,60,30.21,10.0,South,6.9,-,N/A,,Overcast,180,2012-11-18 02:54:00
9:14 PM,49.1,36.0,61,30.22,10.0,SSE,8.1,-,N/A,,Overcast,160,2012-11-18 03:14:00
9:34 PM,49.5,35.8,59,30.21,10.0,SSE,9.2,-,N/A,,Overcast,160,2012-11-18 03:34:00
9:54 PM,49.8,35.4,58,30.21,10.0,SSE,10.4,-,N/A,,Overcast,160,2012-11-18 03:54:00
10:14 PM,49.6,35.2,58,30.21,10.0,South,12.7,17.3,N/A,,Overcast,170,2012-11-18 04:14:00
10:34 PM,49.5,34.9,57,30.21,10.0,SSE,12.7,-,N/A,,Overcast,160,2012-11-18 04:34:00
10:55 PM,49.1,34.7,58,30.21,10.0,SSE,12.7,18.4,N/A,,Overcast,160,2012-11-18 04:55:00
11:14 PM,49.1,34.7,58,30.20,10.0,SSE,12.7,18.4,N/A,,Overcast,160,2012-11-18 05:14:00
11:34 PM,48.7,34.5,58,30.20,10.0,SSE,12.7,18.4,N/A,,Overcast,160,2012-11-18 05:34:00
11:55 PM,48.6,34.3,58,30.20,10.0,South,15.0,20.7,N/A,,Overcast,170,2012-11-18 05:55:00